Aérodrome :
LOGIN :

S'inscrire | Disclaimer

   EN    FR    IT 

 










Légende :    VFR   VFR Marginal   IFR   IFR Intensif   IFR Très Intensif
Visi : 
Plafond : 
>= 8 km
>= 3000ft
5 à 8 km
1000 à 3000 ft
1500m à 5 km
500 à 1000 ft
800 à 1500m
200 à 500 ft
< 800m
< 200 ft
Symboles :   Orages  Brouillard  Fortes neiges  Fortes précipitations  Vent > 20 kt
SIGMETs :   Divers  Orages  Givrage  Turbulence  Onde Orograph.  Cendres Volcan.







- Altitude de l'aérodrome : 416 ft
- Code IATA : OVD


LEAS - Asturias

DERNIER METAR :
  • 171300Z VRB02KT CAVOK 16/06 Q1018 NOSIG

METARs EXPIRÉS :
  • 171230Z 34003KT 260V040 CAVOK 16/06 Q1019 NOSIG
  • 171200Z 33004KT 280V040 CAVOK 16/06 Q1019 NOSIG
  • 171130Z 36003KT 290V050 CAVOK 17/06 Q1019 NOSIG
  • 171100Z 00000KT CAVOK 16/05 Q1019 NOSIG
  • 171030Z 12004KT 080V190 CAVOK 14/06 Q1019 NOSIG

TAF TAF LEAS
Valide du 17 à 09h jusqu'au 18 à 09h UTC


170800Z 1709/1809 22008KT CAVOK TX19/1713Z TN06/1806Z
BECMG 1710/1714 34010KT
PROB40
TEMPO 1718/1809 3000 RA BKN010
PROB40 1721/1806 1400 RA BKN005
Pas de NOTAMs connus pour ce terrain.
1 SIGMET publié pour la FIR Madrid (LECM) :
 
Onde orographique forte
LECM SIGMET 4 VALID 171200/171500 LEVA
LECM MADRID FIR/UIR SEV MTW OBS AT 1157Z WI N4335 W00729 - N4220 W00652 - N4257 W00344 - N4334 W00334 - N4335 W00729 SFC/FL300 STNR NC=



MET'MAP, la Météo Aéronautique d'un coup d'oeil ! - Copyright ORBIFLY Décembre 2007 - Disclaimer

ORBIFLY MET'MAP TEAM :

Programmation & Développement : Alexandra Zaïnal
Conception & Développement : Baudouin d'Aumeries
Co-Programmation & Développement : Marc-Olivier Méhu
Soutien technique & logistique : Manuel Goepfert

Contact : metmap@orbifly.com




SOURCES & CREDITS :

   NOAA